Riverdale, Illinois
Current Conditions -  °F | °C
As of 12:55 AM on Saturday 25 Oct 2014 (Local Time) from KIGQ Reporting Station
Overcast Overcast  
Wind Chill: 57°   Ceiling: 6000
Heat Index: 57°   Visibility: 10mi
Dew Point: 51°   Wind: 5mph
Humidity: 82%   Direction: 200°SSW
Pressure: 29.93"   Gusts: NA
Location:  41.63°N, 87.63°W
Report Text: KIGQ 250555Z AUTO 20004KT 10SM SCT042 OVC060 14/11 A2993 RMK AO2 T01380107 10145 20106 401910085
Loading
Personal Weather Stations






























Interactive Weather Map
Tropical Storm Tracking
New forecast layout! Learn more

10-Day Weather Forecast

Advertisements
Track Severe Weather on mobile